• Join FlightAware (Why Join?)
  • Login
  • US Flag 
03:02PM EDT


 

Airport Tracker/Info


-or-


 

Live Flight TrackerFlight Track Log ✈ DAL268 ✈ 30-Apr-2013 ✈ KJFK - LLBG / TLV

Flight Track Log - Related Links

Times and Time Zones

All times are in EDT time to prevent confusion due to time zone crossing. See the DAL268 flight status page for this flight to view local times or setup timezone preferences in your user account.

Time Position Orientation Groundspeed Altitude Reporting Facility
EDT Latitude Longitude Course Direction KTS MPH feet Rate Location/Type
11:47PM 40.6290 -73.7820 122° Southeast 177 204  Level FlightAware
11:48PM 40.6190 -73.7580 119° Southeast 170 196 700 1,500 Climbing FlightAware
11:48PM 40.6160 -73.7270 97° East 180 207 1,400 1,380 Climbing FlightAware
11:49PM 40.6150 -73.6940 92° East 182 209 2,100 1,500 Climbing FlightAware
11:49PM 40.6180 -73.6830 70° East 185 213 2,400 1,440 Climbing FlightAware
11:49PM 40.6260 -73.6710 49° Northeast 186 214 2,700 1,200 Climbing FlightAware
11:49PM 40.6350 -73.6600 43° Northeast 192 221 3,000 720 Climbing FlightAware
11:50PM 40.6530 -73.6380 43° Northeast 225 259 3,200 840 Climbing FlightAware
11:50PM 40.6780 -73.6090 41° Northeast 245 282 3,800 1,200 Climbing FlightAware
11:51PM 40.7040 -73.5760 44° Northeast 270 311 4,400 1,740 Climbing FlightAware
11:51PM 40.7260 -73.5470 45° Northeast 274 315 5,400 2,160 Climbing FlightAware
11:52PM 40.7590 -73.5140 37° Northeast 294 338 6,400 2,280 Climbing FlightAware
11:52PM 40.7880 -73.4960 25° Northeast 296 341 7,500 2,160 Climbing FlightAware
11:53PM 40.8270 -73.4740 23° Northeast 310 357 8,400 2,280 Climbing FlightAware
11:53PM 40.8670 -73.4510 23° Northeast 308 354 9,800 1,800 Climbing FlightAware
11:54PM 40.9230 -73.4180 24° Northeast 345 397 10,500 1,200 Climbing FlightAware
11:54PM 40.9920 -73.3760 25° Northeast 377 434 11,500 1,260 Climbing FlightAware
11:55PM 41.0590 -73.3360 24° Northeast 405 466 12,300 1,680 Climbing FlightAware
11:56PM 41.1270 -73.2940 25° Northeast 413 475 13,800 2,040 Climbing FlightAware
11:57PM 41.2070 -73.2460 24° Northeast 422 486 15,200 1,680 Climbing FlightAware
11:57PM 41.2780 -73.2050 23° Northeast 437 503 16,200 1,260 Climbing FlightAware
11:58PM 41.3470 -73.1630 25° Northeast 434 499 16,900 1,980 Climbing FlightAware
11:59PM 41.4160 -73.0910 38° Northeast 444 511 18,900 1,500 Climbing FlightAware
11:59PM 41.4720 -73.0140 46° Northeast 445 512 19,100 1,560 Climbing FlightAware
12:00AM 41.5450 -72.9070 48° Northeast 458 527 21,300 1,620 Climbing FlightAware
12:01AM 41.5970 -72.8330 47° Northeast 459 528 21,400 60 Climbing FlightAware
12:01AM 41.6470 -72.7620 47° Northeast 459 528 21,400  Level FlightAware
12:02AM 41.6960 -72.6920 47° Northeast 459 528 21,400 1,800 Level FlightAware
12:03AM 41.7990 -72.5450 47° Northeast 25,200 2,460 Climbing FlightAware
12:04AM 41.8800 -72.4280 47° Northeast 484 557 26,000 1,080 Climbing FlightAware
12:05AM 41.9750 -72.2900 47° Northeast 489 563 27,100 1,200 Climbing FlightAware
12:06AM 42.0410 -72.1940 47° Northeast 485 558 28,200 1,320 Climbing FlightAware
12:06AM 42.1020 -72.1040 48° Northeast 482 555 29,000 1,200 Climbing FlightAware
12:07AM 42.1750 -71.9980 47° Northeast 480 552 29,900 1,200 Climbing FlightAware
12:08AM 42.2310 -71.9150 48° Northeast 477 549 30,700 780 Climbing FlightAware
12:08AM 42.2940 -71.8230 47° Northeast 477 549 31,000 180 Climbing FlightAware
12:09AM 42.3540 -71.7330 48° Northeast 475 547 31,000  Level FlightAware
12:10AM 42.4170 -71.6400 47° Northeast 473 544 31,000  Level FlightAware
12:11AM 42.4790 -71.5480 48° Northeast 473 544 31,000  Level FlightAware
12:11AM 42.5440 -71.4510 48° Northeast 471 542 31,000  Level FlightAware
12:12AM 42.6010 -71.3640 48° Northeast 470 541 31,000  Level FlightAware
12:13AM 42.6690 -71.2630 48° Northeast 470 541 31,000  Level FlightAware
12:13AM 42.7190 -71.1870 48° Northeast 470 541 31,000  Level FlightAware
12:14AM 42.7940 -71.0740 48° Northeast 470 541 31,000  Level FlightAware
12:15AM 42.8510 -70.9870 48° Northeast 470 541 31,000  Level FlightAware
12:15AM 42.9090 -70.8980 48° Northeast 469 540 31,000  Level FlightAware
12:16AM 42.9740 -70.8000 48° Northeast 467 537 31,000  Level FlightAware
12:17AM 43.0340 -70.7080 48° Northeast 467 537 31,000  Level FlightAware
12:18AM 43.0960 -70.6110 49° Northeast 467 537 31,000  Level FlightAware
12:18AM 43.1540 -70.5220 48° Northeast 467 537 31,000  Level FlightAware
12:19AM 43.2120 -70.4330 48° Northeast 467 537 31,000  Level FlightAware
12:20AM 43.2780 -70.3310 48° Northeast 467 537 31,000  Level FlightAware
12:20AM 43.3320 -70.2460 49° Northeast 466 536 31,000  Level FlightAware
12:21AM 43.3980 -70.1430 49° Northeast 466 536 31,000  Level FlightAware
12:22AM 43.4460 -70.0680 49° Northeast 467 537 31,000  Level FlightAware
12:22AM 43.5180 -69.9540 49° Northeast 469 540 31,000  Level FlightAware
12:23AM 43.5760 -69.8640 48° Northeast 469 540 31,000  Level FlightAware
12:24AM 43.6470 -69.7510 49° Northeast 469 540 31,000  Level FlightAware
12:25AM 43.7030 -69.6610 49° Northeast 471 542 31,000  Level FlightAware
12:25AM 43.7600 -69.5700 49° Northeast 471 542 31,000  Level FlightAware
12:26AM 43.8270 -69.4630 49° Northeast 471 542 31,000  Level FlightAware
12:27AM 43.8870 -69.3660 49° Northeast 470 541 31,000  Level FlightAware
12:28AM 43.9480 -69.2690 49° Northeast 470 541 31,000  Level FlightAware
12:29AM 44.0520 -69.0990 50° Northeast 471 542 31,000  Level FlightAware
12:30AM 44.1250 -68.9810 49° Northeast 471 542 31,000  Level FlightAware
12:30AM 44.1940 -68.8680 50° Northeast 472 543 31,000  Level FlightAware
12:31AM 44.2510 -68.7740 50° Northeast 472 543 31,000  Level FlightAware
12:32AM 44.3070 -68.6830 49° Northeast 472 543 31,000  Level FlightAware
12:32AM 44.3700 -68.5790 50° Northeast 471 542 31,000  Level FlightAware
12:33AM 44.4250 -68.4870 50° Northeast 472 543 31,000  Level FlightAware
12:34AM 44.4890 -68.3820 49° Northeast 472 543 31,000  Level FlightAware
12:35AM 44.5450 -68.2870 50° Northeast 472 543 31,000  Level FlightAware
12:35AM 44.6100 -68.1800 50° Northeast 474 545 31,000  Level FlightAware
12:36AM 44.6660 -68.0860 50° Northeast 474 545 31,000  Level FlightAware
12:37AM 44.7310 -67.9760 50° Northeast 475 547 31,000  Level FlightAware
12:37AM 44.7850 -67.8840 50° Northeast 475 547 31,000  Level FlightAware
12:38AM 44.8430 -67.7850 50° Northeast 476 548 31,000  Level FlightAware
12:39AM 44.8990 -67.6890 51° Northeast 476 548 31,000  Level FlightAware
12:39AM 44.9610 -67.5840 50° Northeast 477 549 31,000  Level FlightAware
12:40AM 45.0160 -67.4890 51° Northeast 476 548 31,000  Level FlightAware
12:41AM 45.0730 -67.3910 51° Northeast 476 548 31,000  Level FlightAware
12:42AM 45.1340 -67.2850 51° Northeast 476 548 31,000  Level FlightAware
12:42AM 45.1940 -67.1820 50° Northeast 478 550 31,000  Level FlightAware
12:43AM 45.2910 -67.0120 51° Northeast 472 543 31,000  Level FlightAware
12:45AM 45.4090 -66.8050 51° Northeast 471 542 31,000  Level FlightAware
12:46AM 45.4850 -66.6710 51° Northeast 470 541 31,000  Level FlightAware
12:47AM 45.6030 -66.4620 51° Northeast 470 541 31,000  Level FlightAware
12:48AM 45.6980 -66.2910 51° Northeast 470 541 31,000  Level FlightAware
12:49AM 45.7540 -66.1910 51° Northeast 470 541 31,000  Level FlightAware
12:50AM 45.8090 -66.0930 51° Northeast 470 541 31,000  Level FlightAware
12:50AM 45.8700 -65.9810 52° Northeast 475 547 31,000  Level FlightAware
12:51AM 45.9240 -65.8840 51° Northeast 472 543 31,000  Level FlightAware
12:52AM 45.9850 -65.7730 52° Northeast 477 549 31,000  Level FlightAware
12:52AM 46.0350 -65.6820 52° Northeast 478 550 31,000  Level FlightAware
12:53AM 46.0970 -65.5670 52° Northeast 478 550 31,000  Level FlightAware
12:54AM 46.1490 -65.4710 52° Northeast 478 550 31,000  Level FlightAware
12:55AM 46.1950 -65.3850 52° Northeast 478 550 31,000  Level FlightAware
12:55AM 46.2530 -65.2780 52° Northeast 478 550 31,000  Level FlightAware
12:56AM 46.2990 -65.1930 52° Northeast 478 550 31,000  Level FlightAware
12:57AM 46.3460 -65.1070 52° Northeast 478 550 31,000  Level FlightAware
12:57AM 46.3920 -65.0210 52° Northeast 478 550 31,000  Level FlightAware
12:58AM 46.4380 -64.9350 52° Northeast 478 550 31,000  Level FlightAware
12:59AM 46.4960 -64.8270 52° Northeast 478 550 31,000  Level FlightAware
12:59AM 46.5310 -64.7630 52° Northeast 478 550 31,000  Level FlightAware
01:00AM 46.5890 -64.6550 52° Northeast 478 550 31,000  Level FlightAware
01:01AM 46.6350 -64.5690 52° Northeast 478 550 31,000  Level FlightAware
01:01AM 46.7500 -64.3000 54° Northeast 480 552 31,000  Level Moncton Center
01:02AM 46.6810 -64.4830 52° Northeast 478 550 31,000  Level FlightAware
01:02AM 46.7270 -64.3960 52° Northeast 478 550 31,000  Level FlightAware
01:02AM 46.8333 -64.1500 51° Northeast 480 552 31,000  Level Moncton Center
01:03AM 46.7850 -64.2880 52° Northeast 478 550 31,000  Level FlightAware
01:03AM 46.9167 -64.0000 51° Northeast 480 552 31,000  Level Moncton Center
01:04AM 47.0000 -63.8333 54° Northeast 480 552 31,000  Level Moncton Center
01:05AM 47.0667 -63.6833 57° Northeast 480 552 31,000  Level Moncton Center
01:06AM 47.1500 -63.5167 54° Northeast 480 552 31,000  Level Moncton Center
01:07AM 47.0676 -63.7178 54° Northeast  Level FlightAware Approximate
01:07AM 47.2333 -63.3667 51° Northeast 480 552 31,000  Level Moncton Center
01:08AM 47.3167 -63.1833 56° Northeast 480 552 31,000  Level Moncton Center
01:09AM 47.3833 -63.0333 57° Northeast 480 552 31,000  Level Moncton Center
01:10AM 47.4500 -62.8833 57° Northeast 480 552 31,000  Level Moncton Center
01:11AM 47.5333 -62.7333 51° Northeast 480 552 31,000  Level Moncton Center
01:12AM 47.6167 -62.5833 50° Northeast 480 552 31,000  Level Moncton Center
01:13AM 47.7000 -62.4000 56° Northeast 480 552 31,000  Level Moncton Center
01:14AM 47.7833 -62.2500 50° Northeast 480 552 31,000  Level Moncton Center
01:15AM 47.8500 -62.0833 59° Northeast 470 541 31,000  Level Moncton Center
01:16AM 47.9167 -61.9167 59° Northeast 480 552 31,000  Level Moncton Center
01:17AM 48.0000 -61.7667 50° Northeast 470 541 31,000  Level Moncton Center
01:18AM 48.0667 -61.6167 56° Northeast 470 541 31,000  Level Moncton Center
01:19AM 48.1500 -61.4333 56° Northeast 470 541 31,000  Level Moncton Center
01:20AM 48.2333 -61.2833 50° Northeast 470 541 31,000  Level Moncton Center
01:21AM 48.3000 -61.1167 59° Northeast 470 541 31,000  Level Moncton Center
01:22AM 48.3667 -60.9667 56° Northeast 470 541 31,000  Level Moncton Center
01:23AM 48.4500 -60.7833 56° Northeast 470 541 31,000  Level Moncton Center
01:24AM 48.5333 -60.6333 50° Northeast 470 541 31,000  Level Moncton Center
01:25AM 48.6000 -60.4500 61° Northeast 470 541 31,000  Level Moncton Center
01:26AM 48.6833 -60.2833 53° Northeast 470 541 31,000  Level Moncton Center
01:27AM 48.7500 -60.1333 56° Northeast 470 541 31,000  Level Moncton Center
01:33AM 49.1750 -59.2200 56° Northeast 475 547 31,000  Level FlightAware
01:34AM 49.2260 -59.0980 57° Northeast 476 548 31,000  Level FlightAware
01:35AM 49.2780 -58.9790 56° Northeast 477 549 31,000  Level FlightAware
01:35AM 49.3300 -58.8550 57° Northeast 477 549 31,000  Level FlightAware
01:36AM 49.3780 -58.7430 57° Northeast 477 549 31,000  Level FlightAware
01:37AM 49.4320 -58.6140 57° Northeast 476 548 31,000 60 Level FlightAware
01:37AM 49.4670 -58.5270 58° Northeast 477 549 31,100 660 Climbing FlightAware
01:38AM 49.5240 -58.3740 60° Northeast 478 550 32,000 540 Climbing FlightAware
01:39AM 49.5680 -58.2470 62° Northeast 475 547 32,000  Level FlightAware
01:39AM 49.6090 -58.1270 62° Northeast 473 544 32,000  Level FlightAware
01:40AM 49.6560 -57.9920 62° Northeast 470 541 32,000  Level FlightAware
01:41AM 49.6950 -57.8790 62° Northeast 469 540 32,000  Level FlightAware
01:41AM 49.7340 -57.7630 62° Northeast 469 540 32,000  Level FlightAware
01:42AM 49.7820 -57.6200 62° Northeast 471 542 32,000  Level FlightAware
01:43AM 49.8230 -57.5010 62° Northeast 471 542 32,000  Level FlightAware
01:44AM 49.8680 -57.3660 63° Northeast 472 543 32,000  Level FlightAware
01:44AM 49.9080 -57.2480 62° Northeast 473 544 32,000  Level FlightAware
01:45AM 49.9530 -57.1120 63° Northeast 474 545 32,000  Level FlightAware
01:46AM 49.9940 -56.9900 62° Northeast 474 545 32,000  Level FlightAware
01:46AM 50.0340 -56.8670 63° Northeast 474 545 32,000  Level FlightAware
01:47AM 50.0780 -56.7330 63° Northeast 474 545 32,000  Level FlightAware
01:48AM 50.1190 -56.6100 62° Northeast 474 545 32,000  Level FlightAware
01:49AM 50.1630 -56.4740 63° Northeast 472 543 32,000  Level FlightAware
01:49AM 50.2030 -56.3510 63° Northeast 473 544 32,000  Level FlightAware
01:50AM 50.2420 -56.2300 63° Northeast 472 543 32,000  Level FlightAware
01:51AM 50.2850 -56.0950 63° Northeast 472 543 32,000  Level FlightAware
01:51AM 50.3240 -55.9710 64° Northeast 471 542 32,000  Level FlightAware
01:52AM 50.3680 -55.8330 63° Northeast 472 543 32,000  Level FlightAware
01:53AM 50.4070 -55.7100 64° Northeast 472 543 32,000  Level FlightAware
01:53AM 50.4440 -55.5930 64° Northeast 472 543 32,000  Level FlightAware
01:54AM 50.4890 -55.4490 64° Northeast 472 543 32,000  Level FlightAware
01:55AM 50.5260 -55.3280 64° Northeast 472 543 32,000  Level FlightAware
01:56AM 50.5700 -55.1870 64° Northeast 472 543 32,000  Level FlightAware
01:56AM 50.6080 -55.0640 64° Northeast 473 544 32,000  Level FlightAware
01:57AM 50.6510 -54.9240 64° Northeast 474 545 32,000  Level FlightAware
01:58AM 50.6900 -54.7960 64° Northeast 475 547 32,000  Level FlightAware
01:59AM 50.7390 -54.6330 65° Northeast 475 547 32,000  Level FlightAware
01:59AM 50.7750 -54.5150 64° Northeast 475 547 32,000  Level FlightAware
02:00AM 50.8160 -54.3790 64° Northeast 477 549 32,000  Level FlightAware
02:01AM 50.8490 -54.2720 64° Northeast 477 549 32,000  Level FlightAware
02:01AM 50.8820 -54.1650 64° Northeast 477 549 32,000  Level FlightAware
02:02AM 50.9150 -54.0580 64° Northeast 477 549 32,000  Level FlightAware
02:03AM 50.9780 -53.8240 67° East 479 551 32,000  Level FlightAware
02:04AM 51.0300 -53.6460 65° Northeast 481 554 32,000  Level FlightAware
02:04AM 51.0550 -53.5620 65° Northeast 483 556 32,000  Level FlightAware
02:05AM 51.0920 -53.4300 66° East 483 556 32,000  Level FlightAware
02:06AM 51.1420 -53.2530 66° East 483 556 32,000  Level FlightAware
02:06AM 51.1730 -53.1430 66° East 483 556 32,000  Level FlightAware
02:07AM 51.2040 -53.0320 66° East 483 556 32,000  Level FlightAware
02:08AM 51.2350 -52.9210 66° East 483 556 32,000  Level FlightAware
02:09AM 51.2740 -52.7820 66° East 483 556 32,000  Level FlightAware
02:09AM 51.3050 -52.6710 66° East 483 556 32,000  Level FlightAware
02:10AM 51.3350 -52.5600 67° East 483 556 32,000  Level FlightAware
02:11AM 51.3660 -52.4490 66° East 483 556 32,000  Level FlightAware
02:11AM 51.3970 -52.3380 66° East 483 556 32,000  Level FlightAware
02:12AM 51.4360 -52.1990 66° East 483 556 32,000  Level FlightAware
02:13AM 51.4670 -52.0870 66° East 483 556 32,000  Level FlightAware
02:13AM 51.4980 -51.9760 66° East 483 556 32,000  Level FlightAware
02:14AM 51.5280 -51.8640 67° East 483 556 32,000  Level FlightAware
02:15AM 51.5590 -51.7530 66° East 483 556 32,000  Level FlightAware
02:15AM 51.6500 -51.2833 66° East 510 587 32,000  Level Gander Center
02:16AM 51.7000 -51.0833 68° East 510 587 32,000  Level Gander Center
02:19AM 51.7840 -50.7849 65° Northeast  Level FlightAware Approximate
02:24AM 52.0000 -50.0000 77° East 528 608 32,000  Level ETMS Enhanced Traffic Management System
02:26AM 52.0960 -49.3243 77° East  Level FlightAware Approximate
02:27AM 52.1260 -49.1071 77° East  Level FlightAware Approximate
02:28AM 52.1555 -48.8896 77° East  Level FlightAware Approximate
02:29AM 52.1847 -48.6718 78° East  Level FlightAware Approximate
02:30AM 52.2847 -47.8983 78° East 528 608 32,000  Level FlightAware Transoceanic
02:31AM 52.3140 -47.6631 79° East 528 608 32,000  Level FlightAware Transoceanic
02:32AM 52.3429 -47.4276 79° East 528 608 32,000  Level FlightAware Transoceanic
02:33AM 52.3713 -47.1919 79° East 528 608 32,000  Level FlightAware Transoceanic
02:34AM 52.3992 -46.9558 79° East 528 608 32,000  Level FlightAware Transoceanic
02:35AM 52.4266 -46.7195 79° East 528 608 32,000  Level FlightAware Transoceanic
02:36AM 52.4536 -46.4828 80° East 528 608 32,000  Level FlightAware Transoceanic
02:37AM 52.4801 -46.2459 80° East 528 608 32,000  Level FlightAware Transoceanic
02:38AM 52.5061 -46.0086 80° East 528 608 32,000  Level FlightAware Transoceanic
02:39AM 52.5317 -45.7711 80° East 528 608 32,000  Level FlightAware Transoceanic
02:40AM 52.5567 -45.5334 80° East 528 608 32,000  Level FlightAware Transoceanic
02:41AM 52.5813 -45.2953 80° East 528 608 32,000  Level FlightAware Transoceanic
02:42AM 52.6054 -45.0570 81° East 528 608 32,000  Level FlightAware Transoceanic
02:43AM 52.6291 -44.8184 81° East 528 608 32,000  Level FlightAware Transoceanic
02:44AM 52.6522 -44.5796 81° East 528 608 32,000  Level FlightAware Transoceanic
02:45AM 52.6749 -44.3405 81° East 528 608 32,000  Level FlightAware Transoceanic
02:46AM 52.6971 -44.1012 81° East 528 608 32,000  Level FlightAware Transoceanic
02:47AM 52.7188 -43.8617 82° East 528 608 32,000  Level FlightAware Transoceanic
02:48AM 52.7401 -43.6219 82° East 528 608 32,000  Level FlightAware Transoceanic
02:49AM 52.7608 -43.3818 82° East 528 608 32,000  Level FlightAware Transoceanic
02:50AM 52.7811 -43.1416 82° East 528 608 32,000  Level FlightAware Transoceanic
02:51AM 52.8008 -42.9011 82° East 528 608 32,000  Level FlightAware Transoceanic
02:52AM 52.8201 -42.6604 83° East 528 608 32,000  Level FlightAware Transoceanic
02:53AM 52.8389 -42.4195 83° East 528 608 32,000  Level FlightAware Transoceanic
02:54AM 52.8572 -42.1784 83° East 528 608 32,000  Level FlightAware Transoceanic
02:55AM 52.8751 -41.9371 83° East 528 608 32,000  Level FlightAware Transoceanic
02:56AM 52.8924 -41.6956 83° East 528 608 32,000  Level FlightAware Transoceanic
02:57AM 52.9092 -41.4539 84° East 528 608 32,000  Level FlightAware Transoceanic
02:58AM 52.9256 -41.2120 84° East 528 608 32,000  Level FlightAware Transoceanic
02:59AM 52.9415 -40.9699 84° East 528 608 32,000  Level FlightAware Transoceanic
03:00AM 52.9568 -40.7277 84° East 528 608 32,000  Level FlightAware Transoceanic
03:01AM 52.9717 -40.4853 84° East 528 608 32,000  Level FlightAware Transoceanic
03:02AM 52.9861 -40.2427 84° East 528 608 32,000  Level FlightAware Transoceanic
03:03AM 52.9991 -40.0167 84° East  Level FlightAware Approximate
03:04AM 53.0116 -39.7904 85° East  Level FlightAware Approximate
03:05AM 53.0271 -39.8116 76° East  Level FlightAware Approximate
03:06AM 53.0586 -39.5903 77° East  Level FlightAware Approximate
03:07AM 53.0896 -39.3687 77° East  Level FlightAware Approximate
03:08AM 53.1203 -39.1468 77° East  Level FlightAware Approximate
03:08AM 53.0000 -40.0000 76° East 529 609 32,000  Level ETMS Enhanced Traffic Management System
03:09AM 53.1505 -38.9246 77° East  Level FlightAware Approximate
03:10AM 53.1803 -38.7020 77° East  Level FlightAware Approximate
03:11AM 53.2097 -38.4792 77° East  Level FlightAware Approximate
03:12AM 53.2386 -38.2564 78° East  Level FlightAware Approximate
03:13AM 53.2671 -38.0333 78° East  Level FlightAware Approximate
03:14AM 53.3203 -37.6073 78° East 529 609 32,000  Level FlightAware Transoceanic
03:15AM 53.3497 -37.3661 79° East 529 609 32,000  Level FlightAware Transoceanic
03:16AM 53.3786 -37.1246 79° East 529 609 32,000  Level FlightAware Transoceanic
03:17AM 53.4070 -36.8828 79° East 529 609 32,000  Level FlightAware Transoceanic
03:18AM 53.4349 -36.6406 79° East 529 609 32,000  Level FlightAware Transoceanic
03:19AM 53.4623 -36.3982 79° East 529 609 32,000  Level FlightAware Transoceanic
03:20AM 53.4893 -36.1554 80° East 529 609 32,000  Level FlightAware Transoceanic
03:21AM 53.5157 -35.9123 80° East 529 609 32,000  Level FlightAware Transoceanic
03:22AM 53.5417 -35.6689 80° East 529 609 32,000  Level FlightAware Transoceanic
03:23AM 53.5671 -35.4252 80° East 529 609 32,000  Level FlightAware Transoceanic
03:24AM 53.5921 -35.1812 80° East 529 609 32,000  Level FlightAware Transoceanic
03:25AM 53.6165 -34.9370 81° East 529 609 32,000  Level FlightAware Transoceanic
03:26AM 53.6405 -34.6924 81° East 529 609 32,000  Level FlightAware Transoceanic
03:27AM 53.6640 -34.4476 81° East 529 609 32,000  Level FlightAware Transoceanic
03:28AM 53.6869 -34.2025 81° East 529 609 32,000  Level FlightAware Transoceanic
03:29AM 53.7094 -33.9571 81° East 529 609 32,000  Level FlightAware Transoceanic
03:30AM 53.7314 -33.7115 82° East 529 609 32,000  Level FlightAware Transoceanic
03:31AM 53.7528 -33.4657 82° East 529 609 32,000  Level FlightAware Transoceanic
03:32AM 53.7738 -33.2196 82° East 529 609 32,000  Level FlightAware Transoceanic
03:33AM 53.7942 -32.9732 82° East 529 609 32,000  Level FlightAware Transoceanic
03:34AM 53.8142 -32.7266 82° East 529 609 32,000  Level FlightAware Transoceanic
03:35AM 53.8336 -32.4798 82° East 529 609 32,000  Level FlightAware Transoceanic
03:36AM 53.8526 -32.2327 83° East 529 609 32,000  Level FlightAware Transoceanic
03:37AM 53.8710 -31.9855 83° East 529 609 32,000  Level FlightAware Transoceanic
03:38AM 53.8889 -31.7380 83° East 529 609 32,000  Level FlightAware Transoceanic
03:39AM 53.9063 -31.4903 83° East 529 609 32,000  Level FlightAware Transoceanic
03:40AM 53.9232 -31.2424 83° East 529 609 32,000  Level FlightAware Transoceanic
03:41AM 53.9396 -30.9943 84° East 529 609 32,000  Level FlightAware Transoceanic
03:42AM 53.9554 -30.7460 84° East 529 609 32,000  Level FlightAware Transoceanic
03:43AM 53.9708 -30.4975 84° East 529 609 32,000  Level FlightAware Transoceanic
03:44AM 53.9857 -30.2488 84° East 529 609 32,000 240 Level FlightAware Transoceanic
03:45AM 53.9990 -30.0178 84° East  Level FlightAware Approximate
03:46AM 54.0119 -29.7866 84° East  Level FlightAware Approximate
03:47AM 54.0079 -29.8040 86° East  Level FlightAware Approximate
03:47AM 54.0000 -30.0000 86° East 542 624 33,000  Level ETMS Enhanced Traffic Management System
03:48AM 54.0167 -29.5722 86° East  Level FlightAware Approximate
03:49AM 54.0251 -29.3404 86° East  Level FlightAware Approximate
03:50AM 54.0331 -29.1084 87° East  Level FlightAware Approximate
03:51AM 54.0406 -28.8764 87° East  Level FlightAware Approximate
03:52AM 54.0477 -28.6443 87° East  Level FlightAware Approximate
03:53AM 54.0737 -27.6955 88° East 542 624 33,000  Level FlightAware Transoceanic
03:54AM 54.0792 -27.4390 88° East 542 624 33,000  Level FlightAware Transoceanic
03:55AM 54.0841 -27.1824 88° East 542 624 33,000  Level FlightAware Transoceanic
03:56AM 54.0884 -26.9258 88° East 542 624 33,000  Level FlightAware Transoceanic
03:57AM 54.0923 -26.6691 89° East 542 624 33,000  Level FlightAware Transoceanic
03:58AM 54.0955 -26.4124 89° East 542 624 33,000  Level FlightAware Transoceanic
03:59AM 54.0983 -26.1557 89° East 542 624 33,000  Level FlightAware Transoceanic
04:00AM 54.1005 -25.8989 89° East 542 624 33,000  Level FlightAware Transoceanic
04:01AM 54.1021 -25.6421 89° East 542 624 33,000  Level FlightAware Transoceanic
04:02AM 54.1032 -25.3853 90° East 542 624 33,000  Level FlightAware Transoceanic
04:03AM 54.1037 -25.1284 90° East 542 624 33,000  Level FlightAware Transoceanic
04:04AM 54.1037 -24.8716 90° East 542 624 33,000  Level FlightAware Transoceanic
04:05AM 54.1032 -24.6147 90° East 542 624 33,000  Level FlightAware Transoceanic
04:06AM 54.1021 -24.3579 91° East 542 624 33,000  Level FlightAware Transoceanic
04:07AM 54.1005 -24.1011 91° East 542 624 33,000  Level FlightAware Transoceanic
04:08AM 54.0983 -23.8443 91° East 542 624 33,000  Level FlightAware Transoceanic
04:09AM 54.0955 -23.5876 91° East 542 624 33,000  Level FlightAware Transoceanic
04:10AM 54.0923 -23.3309 91° East 542 624 33,000  Level FlightAware Transoceanic
04:11AM 54.0884 -23.0742 92° East 542 624 33,000  Level FlightAware Transoceanic
04:12AM 54.0841 -22.8176 92° East 542 624 33,000  Level FlightAware Transoceanic
04:13AM 54.0792 -22.5610 92° East 542 624 33,000  Level FlightAware Transoceanic
04:14AM 54.0737 -22.3045 92° East 542 624 33,000  Level FlightAware Transoceanic
04:15AM 54.0677 -22.0481 92° East 542 624 33,000  Level FlightAware Transoceanic
04:16AM 54.0611 -21.7917 93° East 542 624 33,000  Level FlightAware Transoceanic
04:17AM 54.0540 -21.5355 93° East 542 624 33,000  Level FlightAware Transoceanic
04:18AM 54.0464 -21.2793 93° East 542 624 33,000  Level FlightAware Transoceanic
04:19AM 54.0382 -21.0232 93° East 542 624 33,000  Level FlightAware Transoceanic
04:20AM 54.0294 -20.7672 93° East 542 624 33,000  Level FlightAware Transoceanic
04:21AM 54.0202 -20.5114 94° East 542 624 33,000  Level FlightAware Transoceanic
04:22AM 54.0104 -20.2556 94° East 542 624 33,000  Level FlightAware Transoceanic
04:23AM 54.0010 -20.0240 94° East  Level FlightAware Approximate
04:24AM 53.9912 -19.7924 94° East  Level FlightAware Approximate
04:25AM 53.9891 -19.8168 96° East  Level FlightAware Approximate
04:26AM 53.9750 -19.5859 96° East  Level FlightAware Approximate
04:27AM 53.9605 -19.3552 96° East  Level FlightAware Approximate
04:28AM 53.9455 -19.1247 96° East  Level FlightAware Approximate
04:29AM 53.9300 -18.8944 96° East  Level FlightAware Approximate
04:30AM 53.9142 -18.6642 97° East  Level FlightAware Approximate
04:31AM 53.8979 -18.4342 97° East  Level FlightAware Approximate
04:32AM 53.8811 -18.2044 97° East  Level FlightAware Approximate
04:33AM 53.8639 -17.9747 97° East  Level FlightAware Approximate
04:34AM 53.8463 -17.7453 97° East  Level FlightAware Approximate
04:35AM 53.8282 -17.5160 98° East  Level FlightAware Approximate
04:36AM 53.8097 -17.2870 98° East  Level FlightAware Approximate
04:37AM 53.7908 -17.0581 98° East  Level FlightAware Approximate
04:38AM 53.7714 -16.8295 98° East  Level FlightAware Approximate
04:39AM 53.7516 -16.6011 98° East  Level FlightAware Approximate
04:40AM 53.7314 -16.3729 98° East  Level FlightAware Approximate
04:41AM 53.7107 -16.1449 99° East  Level FlightAware Approximate
04:42AM 53.6896 -15.9171 99° East  Level FlightAware Approximate
04:43AM 53.6680 -15.6896 99° East  Level FlightAware Approximate
04:44AM 53.6461 -15.4623 99° East  Level FlightAware Approximate
04:45AM 53.6237 -15.2353 99° East  Level FlightAware Approximate
04:46AM 53.6009 -15.0084 100° East  Level FlightAware Approximate
04:47AM 53.5778 -14.7818 100° East  Level FlightAware Approximate
04:47AM 53.9190 -13.8830 100° East 547 629 33,000  Level FlightAware
04:47AM 53.8910 -13.7190 106° East 546 628 33,000  Level FlightAware
04:48AM 53.5543 -14.5555 100° East  Level FlightAware Approximate
04:48AM 53.8590 -13.5380 107° East 547 629 33,000  Level FlightAware
04:49AM 53.8320 -13.3830 106° East 546 628 33,000  Level FlightAware
04:50AM 53.8010 -13.2030 106° East 546 628 33,000  Level FlightAware
04:50AM 53.7690 -13.0230 107° East 546 628 33,000  Level FlightAware
04:51AM 53.7390 -12.8520 106° East 549 632 33,000  Level FlightAware
04:52AM 53.7080 -12.6800 107° East 549 632 33,000  Level FlightAware
04:52AM 53.6760 -12.5100 108° East 549 632 33,000  Level FlightAware
04:53AM 53.6450 -12.3430 107° East 550 633 33,000  Level FlightAware
04:54AM 53.6120 -12.1650 107° East 549 632 33,000  Level FlightAware
04:54AM 53.5810 -11.9990 107° East 547 629 33,000  Level FlightAware
04:55AM 53.5460 -11.8170 108° East 546 628 33,000  Level FlightAware
04:56AM 53.5140 -11.6490 108° East 546 628 33,000  Level FlightAware
04:57AM 53.4830 -11.4900 108° East 546 628 33,000  Level FlightAware
04:57AM 53.4470 -11.3050 108° East 546 628 33,000  Level FlightAware
04:58AM 53.4160 -11.1480 108° East 545 627 33,000  Level FlightAware
04:59AM 53.3840 -10.9890 109° East 544 626 33,000  Level FlightAware
04:59AM 53.3470 -10.8050 109° East 543 625 33,000  Level FlightAware
05:00AM 53.3100 -10.6240 109° East 544 626 33,000  Level FlightAware
05:01AM 53.2770 -10.4620 109° East 544 626 33,000  Level FlightAware
05:01AM 53.2450 -10.3050 109° East 542 624 33,000  Level FlightAware
05:02AM 53.2120 -10.1450 109° East 542 624 33,000  Level FlightAware
05:03AM 53.1750 -9.9720 110° East 541 623 33,000 60 Level FlightAware
05:04AM 53.1420 -9.8150 109° East 541 623 33,100 840 Climbing FlightAware
05:04AM 53.1040 -9.6370 110° East 538 619 34,200 1,320 Climbing FlightAware
05:05AM 53.0710 -9.4830 110° East 535 616 35,000 540 Climbing FlightAware
05:06AM 53.0330 -9.3080 110° East 533 613 35,000  Level FlightAware
05:06AM 53.0000 -9.1560 110° East 532 612 35,000  Level FlightAware
05:07AM 52.9620 -8.9840 110° East 527 606 35,000 -1,500 Level FlightAware
05:07AM 52.9349 -8.9023 110° East 484 557 33,500 -2,580 Descending FlightAware UK
05:08AM 52.9197 -8.8339 110° East 482 555 33,500 4,980 Level FlightAware UK
05:08AM 52.9320 -8.8510 110° East 526 605 35,000  Climbing FlightAware
05:08AM 52.9044 -8.7657 110° East 482 555 33,500 -2,520 Descending FlightAware UK
05:08AM 52.8893 -8.6978 110° East 480 552 33,500 3,300 Level FlightAware UK
05:08AM 52.8940 -8.6800 110° East 524 603 35,000  Climbing FlightAware
05:09AM 52.8692 -8.6073 110° East 480 552 33,500 -2,760 Descending FlightAware UK
05:09AM 52.8537 -8.5395 111° Southeast 480 552 33,500 3,000 Level FlightAware UK
05:09AM 52.8560 -8.5100 111° Southeast 523 602 35,000  Climbing FlightAware
05:10AM 52.8281 -8.4267 111° Southeast 480 552 33,500  Descending FlightAware UK
05:10AM 52.8260 -8.3800 111° Southeast 523 602 35,000  Climbing FlightAware
05:10AM 52.8125 -8.3583 111° Southeast 482 555 33,500 -4,740 Descending FlightAware UK
05:10AM 52.7972 -8.2907 111° Southeast 480 552 33,500  Level FlightAware UK
05:10AM 52.7816 -8.2231 111° Southeast 480 552 33,500 3,420 Level FlightAware UK
05:11AM 52.7880 -8.2120 111° Southeast 523 602 35,000  Climbing FlightAware
05:11AM 52.7610 -8.1333 111° Southeast 482 555 33,500 -2,700 Descending FlightAware UK
05:11AM 52.7455 -8.0661 111° Southeast 482 555 33,500 3,060 Level FlightAware UK
05:11AM 52.7490 -8.0430 111° Southeast 523 602 35,000  Climbing FlightAware
05:12AM 52.7193 -7.9544 111° Southeast 482 555 33,500 -2,460 Descending FlightAware UK
05:12AM 52.7037 -7.8871 111° Southeast 482 555 33,500 4,260 Level FlightAware UK
05:12AM 52.7140 -7.8960 111° Southeast 523 602 35,000  Climbing FlightAware
05:12AM 52.6880 -7.8199 111° Southeast 484 557 33,500 -2,760 Descending FlightAware UK
05:13AM 52.6723 -7.7529 111° Southeast 482 555 33,500 3,000 Level FlightAware UK
05:13AM 52.6730 -7.7220 111° Southeast 523 602 35,000  Climbing FlightAware
05:13AM 52.6460 -7.6410 111° Southeast 482 555 33,500  Descending FlightAware UK
05:13AM 52.6440 -7.5950 111° Southeast 525 604 35,000  Climbing FlightAware
05:13AM 52.6303 -7.5738 111° Southeast 482 555 33,500 -4,740 Descending FlightAware UK
05:14AM 52.6145 -7.5069 111° Southeast 482 555 33,500  Level FlightAware UK
05:14AM 52.5985 -7.4401 111° Southeast 482 555 33,500 2,880 Level FlightAware UK
05:14AM 52.5990 -7.4070 111° Southeast 524 603 35,000  Climbing FlightAware
05:14AM 52.5720 -7.3290 111° Southeast 482 555 33,500 -2,580 Descending FlightAware UK
05:15AM 52.5561 -7.2626 112° Southeast 482 555 33,500 3,900 Level FlightAware UK
05:15AM 52.5640 -7.2610 112° Southeast 523 602 35,000  Climbing FlightAware
05:15AM 52.5348 -7.1741 112° Southeast 482 555 33,500 -2,460 Descending FlightAware UK
05:15AM 52.5188 -7.1071 111° Southeast 482 555 33,500 4,260 Level FlightAware UK
05:15AM 52.5270 -7.1100 111° Southeast 522 601 35,000  Climbing FlightAware
05:16AM 52.5029 -7.0410 111° Southeast 480 552 33,500 -2,760 Descending FlightAware UK
05:16AM 52.4869 -6.9749 112° Southeast 482 555 33,500 3,600 Level FlightAware UK
05:16AM 52.4930 -6.9670 112° Southeast 522 601 35,000  Climbing FlightAware
05:16AM 52.4654 -6.8870 112° Southeast 480 552 33,500 -2,580 Descending FlightAware UK
05:17AM 52.4492 -6.8211 112° Southeast 482 555 33,500 3,900 Level FlightAware UK
05:17AM 52.4570 -6.8210 112° Southeast 521 600 35,000  Climbing FlightAware
05:17AM 52.4276 -6.7334 112° Southeast 484 557 33,500 -2,460 Descending FlightAware UK
05:17AM 52.4114 -6.6677 112° Southeast 484 557 33,500 3,420 Level FlightAware UK
05:18AM 52.4150 -6.6510 112° Southeast 521 600 35,000  Climbing FlightAware
05:18AM 52.3899 -6.5801 112° Southeast 482 555 33,500 -2,700 Descending FlightAware UK
05:18AM 52.3736 -6.5145 112° Southeast 484 557 33,500 3,720 Level FlightAware UK
05:18AM 52.3780 -6.5050 112° Southeast 520 598 35,000  Climbing FlightAware
05:19AM 52.3519 -6.4274 112° Southeast 486 559 33,500 -2,520 Descending FlightAware UK
05:19AM 52.3355 -6.3623 112° Southeast 484 557 33,500 3,300 Level FlightAware UK
05:19AM 52.3400 -6.3500 112° Southeast 517 595 35,000  Climbing FlightAware
05:19AM 52.3138 -6.2757 112° Southeast 482 555 33,500 -2,760 Descending FlightAware UK
05:20AM 52.2975 -6.2108 112° Southeast 482 555 33,500 3,000 Level FlightAware UK
05:20AM 52.2970 -6.1820 112° Southeast 517 595 35,000  Climbing FlightAware
05:20AM 52.2704 -6.1029 112° Southeast 480 552 33,500 -2,520 Descending FlightAware UK
05:20AM 52.2541 -6.0383 112° Southeast 482 555 33,500 4,080 Level FlightAware UK
05:20AM 52.2620 -6.0420 112° Southeast 516 594 35,000  Climbing FlightAware
05:21AM 52.2320 -5.9517 112° Southeast 480 552 33,500 -2,400 Descending FlightAware UK
05:21AM 52.2155 -5.8873 113° Southeast 480 552 33,500 4,500 Level FlightAware UK
05:21AM 52.2230 -5.8920 113° Southeast 515 593 35,000  Climbing FlightAware
05:21AM 52.1990 -5.8229 113° Southeast 482 555 33,500 -2,700 Descending FlightAware UK
05:22AM 52.1825 -5.7585 113° Southeast 482 555 33,500 3,060 Level FlightAware UK
05:22AM 52.1830 -5.7340 113° Southeast 516 594 35,000  Climbing FlightAware
05:22AM 52.1548 -5.6513 113° Southeast 484 557 33,500 -2,460 Descending FlightAware UK
05:22AM 52.1383 -5.5870 113° Southeast 484 557 33,500 4,260 Level FlightAware UK
05:22AM 52.1460 -5.5920 113° Southeast 515 593 35,000  Climbing FlightAware
05:23AM 52.1217 -5.5228 113° Southeast 482 555 33,500 -2,340 Descending FlightAware UK
05:23AM 52.0993 -5.4374 113° Southeast 482 555 33,500 3,000 Level FlightAware UK
05:23AM 52.1040 -5.4300 113° Southeast 514 592 35,000  Climbing FlightAware
05:24AM 52.0771 -5.3522 113° Southeast 482 555 33,500 -2,520 Descending FlightAware UK
05:24AM 52.0604 -5.2884 113° Southeast 482 555 33,500 4,080 Level FlightAware UK
05:24AM 52.0670 -5.2880 113° Southeast 514 592 35,000  Climbing FlightAware
05:24AM 52.0381 -5.2034 113° Southeast 482 555 33,500 -2,400 Descending FlightAware UK
05:25AM 52.0212 -5.1398 113° Southeast 480 552 33,500 4,500 Level FlightAware UK
05:25AM 52.0300 -5.1490 113° Southeast 513 590 35,000  Climbing FlightAware
05:25AM 52.0005 -5.0530 113° Southeast 482 555 33,500 -2,280 Descending FlightAware UK
05:25AM 51.9892 -4.9864 105° East 482 555 33,500 3,900 Level FlightAware UK
05:25AM 51.9960 -4.9840 105° East 514 592 35,000  Climbing FlightAware
05:26AM 51.9774 -4.8958 105° East 482 555 33,500  Descending FlightAware UK
05:26AM 51.9770 -4.8330 105° East 513 590 35,000 1,440 Climbing FlightAware
05:27AM 51.9590 -4.6810 101° East 513 590 35,000 -1,620 Level FlightAware
05:27AM 51.9437 -4.6009 101° East 484 557 33,500 -2,220 Descending FlightAware UK
05:27AM 51.9333 -4.5105 101° East 484 557 33,500 3,180 Level FlightAware UK
05:27AM 51.9390 -4.5090 101° East 512 589 35,000  Climbing FlightAware
05:28AM 51.9172 -4.3751 101° East 482 555 33,500  Descending FlightAware UK
05:28AM 51.9210 -4.3580 101° East 511 588 35,000  Climbing FlightAware
05:28AM 51.9037 -4.2626 101° East 482 555 33,500  Descending FlightAware UK
05:29AM 51.9010 -4.1930 101° East 510 587 35,000  Climbing FlightAware
05:29AM 51.8815 -4.0826 101° East 484 557 33,500  Descending FlightAware UK
05:29AM 51.8830 -4.0410 101° East 508 585 35,000 1,620 Climbing FlightAware
05:30AM 51.8640 -3.8950 102° East 508 585 35,000 -1,560 Level FlightAware
05:30AM 51.8482 -3.8144 102° East 484 557 33,500  Descending FlightAware UK
05:31AM 51.8430 -3.7240 102° East 507 583 35,000  Climbing FlightAware
05:31AM 51.8227 -3.6140 102° East 482 555 33,500  Descending FlightAware UK
05:32AM 51.8218 -3.5608 102° East 507 583 35,000 1,860 Climbing FlightAware ADS-B
05:32AM 51.8063 -3.4405 102° East 506 582 35,000 -1,800 Level FlightAware ADS-B
05:32AM 51.7914 -3.3693 102° East 480 552 33,500  Descending FlightAware UK
05:33AM 51.7910 -3.3226 102° East 506 582 35,000  Climbing FlightAware ADS-B
05:33AM 51.7770 -3.2585 102° East 482 555 33,500  Descending FlightAware UK
05:33AM 51.7750 -3.1999 102° East 506 582 35,000 1,800 Climbing FlightAware ADS-B
05:34AM 51.7594 -3.0831 102° East 506 582 35,000 -1,920 Level FlightAware ADS-B
05:34AM 51.7449 -3.0144 102° East 482 555 33,500  Descending FlightAware UK
05:34AM 51.7436 -2.9632 102° East 506 582 35,000  Climbing FlightAware ADS-B
05:35AM 51.7272 -2.8810 102° East 482 555 33,500  Descending FlightAware UK
05:35AM 51.7283 -2.8495 102° East 505 581 35,000 2,040 Climbing FlightAware ADS-B
05:35AM 51.7118 -2.7270 102° East 505 581 35,000 -1,860 Level FlightAware ADS-B
05:36AM 51.6975 -2.6602 102° East 482 555 33,500  Descending FlightAware UK
05:36AM 51.6964 -2.6144 102° East 506 582 35,000  Climbing FlightAware ADS-B
05:36AM 51.6823 -2.5494 102° East 482 555 33,500  Descending FlightAware UK
05:36AM 51.6811 -2.5031 102° East 506 582 35,000 1,920 Climbing FlightAware ADS-B
05:37AM 51.6652 -2.3882 103° East 505 581 35,000 -1,980 Level FlightAware ADS-B
05:37AM 51.6518 -2.3285 103° East 484 557 33,500  Descending FlightAware UK
05:37AM 51.6497 -2.2777 103° East 504 580 35,000 1,860 Climbing FlightAware ADS-B
05:38AM 51.6331 -2.1589 103° East 503 579 35,000 -1,620 Level FlightAware ADS-B
05:38AM 51.6148 -2.0654 103° East 484 557 33,500  Descending FlightAware UK
05:38AM 51.6174 -2.0483 103° East 502 578 35,000 2,340 Climbing FlightAware ADS-B
05:39AM 51.6013 -1.9339 103° East 502 578 35,000 -1,920 Level FlightAware ADS-B
05:39AM 51.5888 -1.8678 103° East 484 557 33,500  Descending FlightAware UK
05:39AM 51.5890 -1.8198 103° East 502 578 35,000 1,920 Climbing FlightAware ADS-B
05:40AM 51.5771 -1.7071 100° East 502 578 35,000  Level FlightAware ADS-B
05:41AM 51.5665 -1.5895 98° East 501 577 35,000  Level FlightAware ADS-B
05:41AM 51.5565 -1.4736 98° East 502 578 35,000  Level FlightAware ADS-B
05:42AM 51.5468 -1.3622 98° East 502 578 35,000  Level FlightAware ADS-B
05:42AM 51.5363 -1.2491 98° East 503 579 35,000  Level FlightAware ADS-B
05:43AM 51.5253 -1.1354 99° East 504 580 35,000  Level FlightAware ADS-B
05:43AM 51.5143 -1.0214 99° East 504 580 35,000  Level FlightAware ADS-B
05:44AM 51.5031 -0.9077 99° East 504 580 35,000  Level FlightAware ADS-B
05:44AM 51.4920 -0.7953 99° East 504 580 35,000 -1,800 Level FlightAware ADS-B
05:44AM 51.4789 -0.7155 99° East 486 559 33,500  Descending FlightAware UK
05:45AM 51.4812 -0.6842 99° East 503 579 35,000 2,160 Climbing FlightAware ADS-B
05:45AM 51.4698 -0.5708 99° East 501 577 35,000 -1,620 Level FlightAware ADS-B
05:46AM 51.4545 -0.4728 99° East 486 559 33,500  Descending FlightAware UK
05:46AM 51.4585 -0.4580 99° East 500 575 35,000  Climbing FlightAware ADS-B
05:46AM 51.4434 -0.3627 99° East 486 559 33,500  Descending FlightAware UK
05:46AM 51.4466 -0.3403 99° East 499 574 35,000 2,280 Climbing FlightAware ADS-B
05:47AM 51.4352 -0.2289 99° East 498 573 35,000 -1,980 Level FlightAware ADS-B
05:47AM 51.4230 -0.1656 99° East 484 557 33,500  Descending FlightAware UK
05:47AM 51.4225 -0.1063 99° East 498 573 35,000 1,800 Climbing FlightAware ADS-B
05:48AM 51.4108 0.0055 99° East 498 573 35,000 -1,680 Level FlightAware ADS-B
05:48AM 51.3955 0.0964 99° East 484 557 33,500  Descending FlightAware UK
05:48AM 51.3994 0.1148 99° East 496 571 35,000 2,340 Climbing FlightAware ADS-B
05:49AM 51.3876 0.2255 100° East 495 570 35,000  Level FlightAware ADS-B
05:49AM 51.3735 0.3579 100° East 495 570 35,000  Level FlightAware ADS-B
05:50AM 51.3610 0.4724 100° East 494 568 35,000  Level FlightAware ADS-B
05:50AM 51.3487 0.5847 100° East 494 568 35,000 -1,800 Level FlightAware ADS-B
05:51AM 51.3341 0.6606 100° East 482 555 33,500  Descending FlightAware UK
05:51AM 51.3380 0.6820 100° East 494 568 35,000 6,000 Climbing FlightAware
05:51AM 51.3354 0.7053 100° East 495 570 35,000 -3,600 Level FlightAware ADS-B
05:51AM 51.3198 0.7900 100° East 482 555 33,500  Descending FlightAware UK
05:52AM 51.3227 0.8195 100° East 495 570 35,000  Climbing FlightAware ADS-B
05:52AM 51.3078 0.8971 100° East 480 552 33,500  Descending FlightAware UK
05:52AM 51.3089 0.9441 100° East 495 570 35,000  Climbing FlightAware ADS-B
05:52AM 51.2931 1.0271 100° East 482 555 33,500 -2,340 Descending FlightAware UK
05:53AM 51.2856 1.0925 100° East 482 555 33,500 2,640 Level FlightAware UK
05:53AM 51.2880 1.1300 100° East 494 568 35,000  Climbing FlightAware
05:53AM 51.2707 1.2217 100° East 484 557 33,500  Descending FlightAware UK
05:54AM 51.2740 1.2510 100° East 495 570 35,000  Climbing FlightAware
05:54AM 51.2528 1.3724 100° East 482 555 33,500 -2,040 Descending FlightAware UK
05:54AM 51.2452 1.4370 101° East 482 555 33,500 3,900 Level FlightAware UK
05:54AM 51.2520 1.4350 101° East 496 571 35,000  Climbing FlightAware
05:55AM 51.2348 1.5239 101° East 480 552 33,500 -2,460 Descending FlightAware UK
05:55AM 51.2271 1.5886 101° East 482 555 33,500 4,260 Level FlightAware UK
05:55AM 51.2350 1.5840 101° East 496 571 35,000  Climbing FlightAware
05:55AM 51.2195 1.6535 101° East 484 557 33,500 -2,760 Descending FlightAware UK
05:56AM 51.2118 1.7183 101° East 486 559 33,500 3,000 Level FlightAware UK
05:56AM 51.2160 1.7420 101° East 497 572 35,000  Climbing FlightAware
05:56AM 51.1949 1.8253 101° East 486 559 33,500  Descending FlightAware UK
05:56AM 51.1930 1.8590 101° East 493 567 35,000  Climbing FlightAware
05:57AM 51.1593 1.9660 101° East 486 559 33,500 -2,100 Descending FlightAware UK
05:57AM 51.1427 2.0255 114° Southeast 488 562 33,500 4,500 Level FlightAware UK
05:57AM 51.1510 2.0150 114° Southeast 491 565 35,000  Climbing FlightAware
05:57AM 51.1248 2.0849 114° Southeast 488 562 33,500 -2,700 Descending FlightAware UK
05:58AM 51.1065 2.1429 117° Southeast 490 564 33,500 3,720 Level FlightAware UK
05:58AM 51.1110 2.1470 117° Southeast 490 564 35,000  Climbing FlightAware
05:58AM 51.0765 2.2398 117° Southeast 492 566 33,500  Descending FlightAware UK
05:59AM 51.0750 2.2670 116° Southeast 488 562 35,000  Climbing FlightAware
05:59AM 51.0589 2.2979 116° Southeast 490 564 33,500 -2,760 Descending FlightAware UK
05:59AM 51.0295 2.3955 116° Southeast 486 559 33,500 2,040 Level FlightAware UK
05:59AM 51.0310 2.4130 116° Southeast 487 560 35,000  Climbing FlightAware
06:00AM 50.9828 2.5503 116° Southeast 488 562 33,500  Descending FlightAware UK
06:00AM 50.9850 2.5630 116° Southeast 486 559 35,000 1,800 Climbing FlightAware
06:01AM 50.9460 2.6940 115° Southeast 484 557 35,000 -1,140 Level FlightAware
06:01AM 50.8943 2.8377 115° Southeast 490 564 33,500  Descending FlightAware UK
06:01AM 50.9040 2.8290 115° Southeast 481 554 35,000 2,040 Climbing FlightAware
06:02AM 50.8630 2.9610 116° Southeast 478 550 35,000 -1,620 Level FlightAware
06:02AM 50.8355 3.0266 116° Southeast 486 559 33,500  Descending FlightAware UK
06:03AM 50.8250 3.0820 116° Southeast 477 549 35,000 1,260 Climbing FlightAware
06:04AM 50.7800 3.2250 116° Southeast 476 548 35,000 -1,500 Level FlightAware
06:04AM 50.7526 3.2889 116° Southeast 482 555 33,500 -2,760 Descending FlightAware UK
06:04AM 50.7348 3.3448 117° Southeast 480 552 33,500 4,500 Level FlightAware UK
06:04AM 50.7470 3.3300 117° Southeast 478 550 35,000  Climbing FlightAware
06:05AM 50.6991 3.4569 117° Southeast 482 555 33,500  Descending FlightAware UK
06:05AM 50.7050 3.4650 117° Southeast 478 550 35,000 1,560 Climbing FlightAware
06:06AM 50.6580 3.6120 117° Southeast 479 551 35,000  Level FlightAware
06:06AM 50.6170 3.7400 117° Southeast 479 551 35,000 -1,320 Level FlightAware
06:07AM 50.5729 3.8499 117° Southeast 486 559 33,500  Descending FlightAware UK
06:07AM 50.5730 3.8760 117° Southeast 477 549 35,000  Climbing FlightAware
06:07AM 50.5313 3.9810 117° Southeast 1 1 33,500  Descending FlightAware UK
06:08AM 50.5340 3.9980 117° Southeast 475 547 35,000  Climbing FlightAware
06:08AM 50.4951 4.0921 117° Southeast 1 1 33,500  Descending FlightAware UK
06:08AM 50.4920 4.1250 118° Southeast 474 545 35,000  Climbing FlightAware
06:08AM 50.4768 4.1469 118° Southeast 1 1 33,500 -2,940 Descending FlightAware UK
06:09AM 50.4461 4.2383 118° Southeast 1 1 33,500 2,040 Level FlightAware UK
06:09AM 50.4480 4.2610 118° Southeast 476 548 35,000  Climbing FlightAware
06:09AM 50.4133 4.3248 118° Southeast 1 1 33,500 -2,700 Descending FlightAware UK
06:10AM 50.3972 4.3844 113° Southeast 1 1 33,500 4,680 Level FlightAware UK
06:10AM 50.4110 4.3740 113° Southeast 478 550 35,000  Climbing FlightAware
06:10AM 50.3784 4.4391 113° Southeast 1 1 33,500 -1,920 Descending FlightAware UK
06:10AM 50.3481 4.5326 117° Southeast 1 1 33,500 2,700 Level FlightAware UK
06:11AM 50.3600 4.5260 117° Southeast 480 552 35,000  Climbing FlightAware
06:11AM 50.3238 4.6073 117° Southeast 1 1 33,500  Descending FlightAware UK
06:11AM 50.3180 4.6540 117° Southeast 483 556 35,000 1,500 Climbing FlightAware
06:12AM 50.2780 4.7730 118° Southeast 485 558 35,000  Level FlightAware
06:13AM 50.2310 4.9130 118° Southeast 488 562 35,000  Level FlightAware
06:13AM 50.1890 5.0390 117° Southeast 491 565 35,000  Level FlightAware
06:14AM 50.1400 5.1820 118° Southeast 494 568 35,000  Level FlightAware
06:15AM 50.0910 5.3270 118° Southeast 495 570 35,000  Level FlightAware
06:15AM 50.0560 5.4280 118° Southeast 496 571 35,000  Level FlightAware
06:16AM 50.0070 5.5690 118° Southeast 496 571 35,000  Level FlightAware
06:17AM 49.9640 5.6940 118° Southeast 496 571 35,000  Level FlightAware
06:18AM 49.9130 5.8400 118° Southeast 497 572 35,000  Level FlightAware
06:18AM 49.8680 5.9690 118° Southeast 490 564 35,000  Level FlightAware
06:19AM 49.8330 6.0680 119° Southeast 489 563 35,000  Level FlightAware
06:20AM 49.7800 6.2170 119° Southeast 485 558 35,000  Level FlightAware
06:21AM 49.6920 6.4650 119° Southeast 480 552 35,000  Level FlightAware
06:22AM 49.6440 6.5980 119° Southeast 477 549 35,000  Level FlightAware
06:23AM 49.5800 6.7730 119° Southeast 474 545 35,000  Level FlightAware
06:24AM 49.5260 6.9230 119° Southeast 472 543 35,000  Level FlightAware
06:24AM 49.4850 7.0350 119° Southeast 472 543 35,000  Level FlightAware
06:25AM 49.4180 7.2160 120° Southeast 471 542 35,000  Level FlightAware
06:26AM 49.3680 7.3500 120° Southeast 471 542 35,000  Level FlightAware
06:27AM 49.2760 7.5960 120° Southeast 471 542 35,000  Level FlightAware
06:28AM 49.2380 7.6970 120° Southeast 470 541 35,000  Level FlightAware
06:29AM 49.1730 7.8690 120° Southeast 469 540 35,000  Level FlightAware
06:31AM 49.0470 8.1990 120° Southeast 473 544 35,000  Level FlightAware
06:32AM 48.9980 8.3270 120° Southeast 474 545 35,000  Level FlightAware
06:32AM 48.9580 8.4260 122° Southeast 469 540 35,000  Level FlightAware
06:33AM 48.9010 8.5200 133° Southeast 462 532 35,000  Level FlightAware
06:34AM 48.8310 8.6240 136° Southeast 456 525 35,000  Level FlightAware
06:34AM 48.7740 8.7190 132° Southeast 466 536 35,000  Level FlightAware
06:35AM 48.7260 8.8210 125° Southeast 472 543 35,000  Level FlightAware
06:36AM 48.6680 8.9440 125° Southeast 470 541 35,000  Level FlightAware
06:36AM 48.6170 9.0510 126° Southeast 471 542 35,000  Level FlightAware
06:37AM 48.5590 9.1720 126° Southeast 471 542 35,000  Level FlightAware
06:38AM 48.5000 9.2750 131° Southeast 461 531 35,000  Level FlightAware
06:38AM 48.4390 9.3490 141° Southeast 455 524 35,000  Level FlightAware
06:39AM 48.3580 9.4390 144° Southeast 456 525 35,000  Level FlightAware
06:40AM 48.2900 9.5130 144° Southeast 457 526 35,000  Level FlightAware
06:41AM 48.2170 9.5940 144° Southeast 457 526 35,000  Level FlightAware
06:41AM 48.1510 9.6670 144° Southeast 456 525 35,000  Level FlightAware
06:42AM 48.0570 9.7700 144° Southeast 457 526 35,000  Level FlightAware
06:43AM 47.9810 9.8530 144° Southeast 457 526 35,000  Level FlightAware
06:44AM 47.9060 9.9340 144° Southeast 458 527 35,000  Level FlightAware
06:44AM 47.8270 10.0200 144° Southeast 459 528 35,000  Level FlightAware
06:45AM 47.7610 10.0930 143° Southeast 460 529 35,000  Level FlightAware
06:46AM 47.6910 10.1710 143° Southeast 459 528 35,000  Level FlightAware
06:46AM 47.6120 10.2480 147° Southeast 455 524 35,000  Level FlightAware
06:48AM 47.4200 10.4090 150° Southeast 450 518 35,000  Level FlightAware
06:49AM 47.2930 10.5190 150° Southeast 447 514 35,000  Level FlightAware
06:51AM 47.1470 10.6440 150° Southeast 451 519 35,000  Level FlightAware
06:52AM 47.0050 10.7570 152° Southeast 457 526 35,000  Level FlightAware
06:53AM 46.9420 10.8330 141° Southeast 472 543 35,000  Level FlightAware
06:53AM 46.8800 10.9360 131° Southeast 472 543 35,000  Level FlightAware
06:54AM 46.8140 11.0400 133° Southeast 476 548 35,000  Level FlightAware
06:55AM 46.7630 11.1230 132° Southeast 478 550 35,000  Level FlightAware
06:55AM 46.6890 11.2400 133° Southeast 478 550 35,000  Level FlightAware
06:56AM 46.6310 11.3310 133° Southeast 476 548 35,000  Level FlightAware
06:57AM 46.5610 11.4400 133° Southeast 476 548 35,000  Level FlightAware
06:58AM 46.5000 11.5350 133° Southeast 476 548 35,000  Level FlightAware
06:58AM 46.4410 11.6270 133° Southeast 476 548 35,000  Level FlightAware
06:59AM 46.3740 11.7300 133° Southeast 477 549 35,000  Level FlightAware
07:00AM 46.3110 11.8260 134° Southeast 477 549 35,000  Level FlightAware
07:00AM 46.2450 11.9280 133° Southeast 474 545 35,000  Level FlightAware
07:01AM 46.1820 12.0250 133° Southeast 476 548 35,000  Level FlightAware
07:02AM 46.1230 12.1160 133° Southeast 477 549 35,000  Level FlightAware
07:02AM 46.0520 12.2230 134° Southeast 477 549 35,000  Level FlightAware
07:03AM 45.9910 12.3150 134° Southeast 476 548 35,000  Level FlightAware
07:04AM 45.9320 12.4050 133° Southeast 477 549 35,000  Level FlightAware
07:05AM 45.8600 12.5130 134° Southeast 478 550 35,000  Level FlightAware
07:05AM 45.8000 12.6030 134° Southeast 477 549 35,000  Level FlightAware
07:06AM 45.7290 12.7100 134° Southeast 483 556 35,000  Level FlightAware
07:07AM 45.6670 12.8010 134° Southeast 483 556 35,000  Level FlightAware
07:07AM 45.5980 12.9020 134° Southeast 483 556 35,000  Level FlightAware
07:08AM 45.5340 12.9980 134° Southeast 483 556 35,000  Level FlightAware
07:09AM 45.4650 13.0990 134° Southeast 483 556 35,000  Level FlightAware
07:09AM 45.4020 13.1920 134° Southeast 484 557 35,000  Level FlightAware
07:10AM 45.3410 13.2810 134° Southeast 485 558 35,000  Level FlightAware
07:11AM 45.2690 13.3860 134° Southeast 485 558 35,000  Level FlightAware
07:12AM 45.2070 13.4770 134° Southeast 486 559 35,000  Level FlightAware
07:12AM 45.1450 13.5860 129° Southeast 493 567 35,000  Level FlightAware
07:13AM 45.0910 13.6900 126° Southeast 494 568 35,000  Level FlightAware
07:14AM 45.0380 13.7950 126° Southeast 495 570 35,000  Level FlightAware
07:14AM 44.9890 13.8920 126° Southeast 495 570 35,000  Level FlightAware
07:15AM 44.9190 14.0270 126° Southeast 496 571 35,000  Level FlightAware
07:16AM 44.8630 14.1350 126° Southeast 496 571 35,000  Level FlightAware
07:16AM 44.8060 14.2450 126° Southeast 495 570 35,000  Level FlightAware
07:17AM 44.7530 14.3480 126° Southeast 495 570 35,000  Level FlightAware
07:18AM 44.6930 14.4620 126° Southeast 495 570 35,000  Level FlightAware
07:19AM 44.6380 14.5680 126° Southeast 496 571 35,000  Level FlightAware
07:19AM 44.5760 14.6860 126° Southeast 492 566 35,000  Level FlightAware
07:20AM 44.5280 14.7770 126° Southeast 492 566 35,000  Level FlightAware
07:21AM 44.4680 14.8890 127° Southeast 492 566 35,000  Level FlightAware
07:21AM 44.4100 14.9980 127° Southeast 492 566 35,000  Level FlightAware
07:22AM 44.3350 15.1400 126° Southeast 492 566 35,000  Level FlightAware
07:23AM 44.2730 15.2550 127° Southeast 492 566 35,000  Level FlightAware
07:24AM 44.2110 15.3700 127° Southeast 493 567 35,000  Level FlightAware
07:24AM 44.1620 15.4620 127° Southeast 494 568 35,000  Level FlightAware
07:25AM 44.0920 15.5890 127° Southeast 496 571 35,000  Level FlightAware
07:26AM 44.0390 15.6870 127° Southeast 502 578 35,000  Level FlightAware
07:26AM 43.9810 15.7940 127° Southeast 503 579 35,000  Level FlightAware
07:27AM 43.9180 15.9100 127° Southeast 505 581 35,000  Level FlightAware
07:28AM 43.8620 16.0090 128° Southeast 505 581 35,000  Level FlightAware
07:29AM 43.7970 16.1280 127° Southeast 506 582 35,000  Level FlightAware
07:29AM 43.7410 16.2300 127° Southeast 506 582 35,000  Level FlightAware
07:30AM 43.6900 16.3200 128° Southeast 505 581 35,000  Level FlightAware
07:31AM 43.6200 16.4460 127° Southeast 506 582 35,000  Level FlightAware
07:31AM 43.5610 16.5510 128° Southeast 506 582 35,000  Level FlightAware
07:32AM 43.4960 16.6670 128° Southeast 507 583 35,000  Level FlightAware
07:33AM 43.4420 16.7630 128° Southeast 506 582 35,000  Level FlightAware
07:33AM 43.3830 16.8680 128° Southeast 501 577 35,000  Level FlightAware
07:34AM 43.3170 16.9820 128° Southeast 501 577 35,000  Level FlightAware
07:35AM 43.2590 17.0850 128° Southeast 500 575 35,000  Level FlightAware
07:36AM 43.2010 17.1860 128° Southeast 499 574 35,000  Level FlightAware
07:36AM 43.1360 17.2980 128° Southeast 498 573 35,000  Level FlightAware
07:37AM 43.0800 17.3960 128° Southeast 497 572 35,000  Level FlightAware
07:38AM 43.0140 17.5110 128° Southeast 496 571 35,000  Level FlightAware
07:38AM 42.9570 17.6090 128° Southeast 495 570 35,000  Level FlightAware
07:39AM 42.8940 17.7160 129° Southeast 498 573 35,000  Level FlightAware
07:40AM 42.8350 17.8180 128° Southeast 496 571 35,000  Level FlightAware
07:40AM 42.7800 17.9100 129° Southeast 496 571 35,000  Level FlightAware
07:41AM 42.7260 18.0030 128° Southeast 496 571 35,000  Level FlightAware
07:42AM 42.6530 18.1270 129° Southeast 496 571 35,000  Level FlightAware
07:43AM 42.5870 18.2380 129° Southeast 496 571 35,000 60 Level FlightAware
07:43AM 42.5250 18.3280 133° Southeast 497 572 35,100 720 Climbing FlightAware
07:44AM 42.4580 18.4160 136° Southeast 496 571 36,000 1,200 Climbing FlightAware
07:45AM 42.3860 18.5120 135° Southeast 495 570 36,800 660 Climbing FlightAware
07:45AM 42.3220 18.5990 135° Southeast 497 572 37,000 120 Climbing FlightAware
07:46AM 42.2470 18.6990 135° Southeast 497 572 37,000  Level FlightAware
07:47AM 42.1840 18.7850 135° Southeast 497 572 37,000  Level FlightAware
07:48AM 42.1100 18.8840 135° Southeast 497 572 37,000  Level FlightAware
07:48AM 42.0450 18.9710 135° Southeast 497 572 37,000  Level FlightAware
07:49AM 41.9800 19.0580 135° Southeast 495 570 37,000  Level FlightAware
07:50AM 41.9050 19.1560 136° Southeast 495 570 37,000  Level FlightAware
07:50AM 41.8490 19.2300 135° Southeast 494 568 37,000  Level FlightAware
07:51AM 41.7650 19.3370 136° Southeast 494 568 37,000  Level FlightAware
07:52AM 41.6970 19.4150 139° Southeast 493 567 37,000  Level FlightAware
07:52AM 41.6270 19.4930 140° Southeast 493 567 37,000  Level FlightAware
07:53AM 41.5300 19.6020 140° Southeast 493 567 37,000  Level FlightAware
07:54AM 41.4710 19.6690 140° Southeast 493 567 37,000  Level FlightAware
07:55AM 41.3850 19.7730 138° Southeast 493 567 37,000  Level FlightAware
07:55AM 41.3160 19.8670 134° Southeast 492 566 37,000  Level FlightAware
07:56AM 41.2470 19.9600 135° Southeast 492 566 37,000  Level FlightAware
07:57AM 41.1840 20.0440 135° Southeast 491 565 37,000  Level FlightAware
07:58AM 41.1130 20.1390 135° Southeast 492 566 37,000  Level FlightAware
07:58AM 41.0480 20.2260 135° Southeast 492 566 37,000  Level FlightAware
07:59AM 40.9840 20.3090 136° Southeast 491 565 37,000  Level FlightAware
07:59AM 40.9280 20.3840 135° Southeast 491 565 37,000  Level FlightAware
08:00AM 40.8720 20.4580 135° Southeast 492 566 37,000  Level FlightAware
08:01AM 40.8050 20.5450 135° Southeast 492 566 37,000  Level FlightAware
08:02AM 40.7400 20.6310 135° Southeast 491 565 37,000  Level FlightAware
08:02AM 40.6750 20.7150 136° Southeast 491 565 37,000  Level FlightAware
08:03AM 40.5800 20.8400 135° Southeast 490 564 37,000  Level FlightAware
08:04AM 40.5090 20.9310 136° Southeast 490 564 37,000  Level FlightAware
08:05AM 40.4410 21.0210 135° Southeast 490 564 37,000  Level FlightAware
08:05AM 40.3740 21.1190 132° Southeast 491 565 37,000  Level FlightAware
08:06AM 40.2820 21.2550 132° Southeast 491 565 37,000  Level FlightAware
08:07AM 40.1970 21.3770 132° Southeast 492 566 37,000  Level FlightAware
08:08AM 40.1320 21.4710 132° Southeast 492 566 37,000  Level FlightAware
08:09AM 40.0810 21.5460 132° Southeast 492 566 37,000  Level FlightAware
08:09AM 40.0290 21.6210 132° Southeast 492 566 37,000  Level FlightAware
08:10AM 39.9240 21.7690 133° Southeast 495 570 37,000  Level FlightAware
08:11AM 39.8620 21.8580 132° Southeast 494 568 37,000  Level FlightAware
08:12AM 39.7940 21.9540 133° Southeast 493 567 37,000  Level FlightAware
08:12AM 39.7310 22.0430 133° Southeast 494 568 37,000  Level FlightAware
08:13AM 39.6740 22.1230 133° Southeast 493 567 37,000  Level FlightAware
08:14AM 39.5980 22.2300 133° Southeast 492 566 37,000  Level FlightAware
08:14AM 39.5310 22.3240 133° Southeast 492 566 37,000  Level FlightAware
08:15AM 39.4690 22.4110 133° Southeast 491 565 37,000  Level FlightAware
08:16AM 39.4080 22.4970 133° Southeast 490 564 37,000  Level FlightAware
08:16AM 39.3360 22.5970 133° Southeast 489 563 37,000  Level FlightAware
08:17AM 39.2750 22.6820 133° Southeast 488 562 37,000  Level FlightAware
08:18AM 39.2060 22.7760 133° Southeast 489 563 37,000  Level FlightAware
08:19AM 39.1440 22.8620 133° Southeast 489 563 37,000  Level FlightAware
08:19AM 39.0820 22.9470 133° Southeast 491 565 37,000  Level FlightAware
08:20AM 39.0120 23.0440 133° Southeast 492 566 37,000  Level FlightAware
08:21AM 38.9480 23.1310 133° Southeast 493 567 37,000  Level FlightAware
08:21AM 38.8870 23.2140 133° Southeast 493 567 37,000  Level FlightAware
08:22AM 38.8180 23.3080 133° Southeast 491 565 37,000  Level FlightAware
08:23AM 38.7560 23.3920 133° Southeast 490 564 37,000  Level FlightAware
08:23AM 38.6930 23.4780 133° Southeast 489 563 37,000  Level FlightAware
08:24AM 38.6210 23.5760 133° Southeast 489 563 37,000  Level FlightAware
08:25AM 38.5590 23.6590 134° Southeast 490 564 37,000  Level FlightAware
08:26AM 38.4900 23.7520 133° Southeast 488 562 37,000  Level FlightAware
08:26AM 38.4250 23.8380 134° Southeast 487 560 37,000  Level FlightAware
08:27AM 38.3570 23.9290 134° Southeast 486 559 37,000  Level FlightAware
08:28AM 38.2950 24.0120 134° Southeast 484 557 37,000  Level FlightAware
08:28AM 38.2330 24.0940 134° Southeast 481 554 37,000  Level FlightAware
08:29AM 38.1650 24.1850 134° Southeast 480 552 37,000  Level FlightAware
08:30AM 38.1040 24.2640 134° Southeast 478 550 37,000  Level FlightAware
08:30AM 38.0330 24.3580 134° Southeast 478 550 37,000  Level FlightAware
08:31AM 37.9720 24.4390 134° Southeast 478 550 37,000  Level FlightAware
08:32AM 37.9100 24.5210 134° Southeast 478 550 37,000  Level FlightAware
08:33AM 37.8420 24.6090 134° Southeast 480 552 37,000  Level FlightAware
08:33AM 37.7800 24.6910 134° Southeast 481 554 37,000  Level FlightAware
08:34AM 37.7180 24.7720 134° Southeast 483 556 37,000  Level FlightAware
08:35AM 37.6460 24.8650 134° Southeast 484 557 37,000  Level FlightAware
08:35AM 37.5850 24.9440 134° Southeast 485 558 37,000  Level FlightAware
08:36AM 37.5150 25.0350 134° Southeast 486 559 37,000  Level FlightAware
08:37AM 37.4520 25.1160 134° Southeast 487 560 37,000  Level FlightAware
08:37AM 37.3890 25.1970 134° Southeast 487 560 37,000  Level FlightAware
08:38AM 37.3160 25.2900 135° Southeast 489 563 37,000  Level FlightAware
08:39AM 37.2530 25.3710 134° Southeast 489 563 37,000  Level FlightAware
08:39AM 37.1900 25.4520 134° Southeast 490 564 37,000  Level FlightAware
08:40AM 37.1200 25.5420 134° Southeast 491 565 37,000  Level FlightAware
08:41AM 37.0550 25.6240 135° Southeast 491 565 37,000  Level FlightAware
08:42AM 36.9820 25.7170 134° Southeast 491 565 37,000  Level FlightAware
08:42AM 36.9180 25.7970 135° Southeast 492 566 37,000  Level FlightAware
08:43AM 36.8470 25.8880 134° Southeast 492 566 37,000  Level FlightAware
08:44AM 36.7830 25.9690 135° Southeast 492 566 37,000  Level FlightAware
08:44AM 36.7120 26.0570 135° Southeast 492 566 37,000  Level FlightAware
08:45AM 36.6450 26.1410 135° Southeast 494 568 37,000  Level FlightAware
08:46AM 36.5770 26.2340 132° Southeast 493 567 37,000  Level FlightAware
08:47AM 36.5310 26.3320 120° Southeast 490 564 37,000  Level FlightAware
08:47AM 36.4880 26.4420 116° Southeast 490 564 37,000  Level FlightAware
08:48AM 36.4470 26.5460 116° Southeast 491 565 37,000  Level FlightAware
08:49AM 36.4060 26.6500 116° Southeast 491 565 37,000  Level FlightAware
08:49AM 36.3610 26.7610 117° Southeast 492 566 37,000  Level FlightAware
08:50AM 36.3300 26.8380 117° Southeast 491 565 37,000  Level FlightAware
08:51AM 36.2750 26.9710 117° Southeast 488 562 37,000  Level FlightAware
08:51AM 36.2370 27.0660 116° Southeast 492 566 37,000  Level FlightAware
08:52AM 36.1970 27.1630 117° Southeast 493 567 37,000  Level FlightAware
08:53AM 36.1290 27.3290 117° Southeast 494 568 37,000  Level FlightAware
08:54AM 36.0900 27.4210 118° Southeast 495 570 37,000  Level FlightAware
08:54AM 36.0530 27.5120 117° Southeast 496 571 37,000  Level FlightAware
08:55AM 36.0000 27.6400 117° Southeast 496 571 37,000  Level FlightAware
08:56AM 35.9510 27.7480 119° Southeast 496 571 37,000  Level FlightAware
08:57AM 35.9040 27.8540 119° Southeast 496 571 37,000  Level FlightAware
08:57AM 35.8300 27.9510 133° Southeast 497 572 37,000  Level FlightAware
08:58AM 35.7710 28.0500 126° Southeast 496 571 37,000  Level FlightAware
08:59AM 35.7030 28.1660 126° Southeast 496 571 37,000  Level FlightAware
09:00AM 35.6500 28.2570 126° Southeast 497 572 37,000  Level FlightAware
09:00AM 35.5950 28.3500 126° Southeast 497 572 37,000  Level FlightAware
09:01AM 35.5360 28.4500 126° Southeast 497 572 37,000  Level FlightAware
09:02AM 35.4830 28.5380 126° Southeast 498 573 37,000  Level FlightAware
09:02AM 35.4370 28.6160 126° Southeast 498 573 37,000  Level FlightAware
09:03AM 35.3630 28.7390 126° Southeast 500 575 37,000  Level FlightAware
09:04AM 35.3090 28.8310 126° Southeast 501 577 37,000  Level FlightAware
09:04AM 35.2540 28.9210 127° Southeast 503 579 37,000  Level FlightAware
09:05AM 35.2090 28.9970 126° Southeast 505 581 37,000  Level FlightAware
09:06AM 35.1510 29.0920 127° Southeast 501 577 37,000  Level FlightAware
09:07AM 35.0850 29.2020 126° Southeast 502 578 37,000  Level FlightAware
09:07AM 35.0410 29.2740 127° Southeast 503 579 37,000  Level FlightAware
09:08AM 34.9580 29.4110 126° Southeast 509 586 37,000  Level FlightAware
09:09AM 34.8810 29.5350 127° Southeast 511 588 37,000  Level FlightAware
09:10AM 34.8220 29.6300 127° Southeast 511 588 37,000  Level FlightAware
09:10AM 34.7570 29.7360 127° Southeast 513 590 37,000  Level FlightAware
09:11AM 34.7110 29.8110 127° Southeast 514 592 37,000  Level FlightAware
09:12AM 34.6140 29.9690 127° Southeast 515 593 37,000  Level FlightAware
09:13AM 34.5580 30.0670 125° Southeast 514 592 37,000  Level FlightAware
09:13AM 34.5120 30.1570 122° Southeast 514 592 37,000  Level FlightAware
09:14AM 34.4500 30.2860 120° Southeast 514 592 37,000  Level FlightAware
09:15AM 34.3940 30.4020 120° Southeast 514 592 37,000  Level FlightAware
09:16AM 34.3470 30.5020 120° Southeast 516 594 37,000  Level FlightAware
09:16AM 34.2920 30.6160 120° Southeast 517 595 37,000  Level FlightAware
09:17AM 34.2440 30.7160 120° Southeast 517 595 37,000  Level FlightAware
09:18AM 34.2080 30.7900 120° Southeast 517 595 37,000  Level FlightAware
09:18AM 34.1590 30.8900 121° Southeast 518 596 37,000  Level FlightAware
09:19AM 34.1120 30.9870 120° Southeast 514 592 37,000  Level FlightAware
09:20AM 34.0550 31.1020 121° Southeast 517 595 37,000  Level FlightAware
09:20AM 34.0050 31.2040 121° Southeast 518 596 37,000  Level FlightAware
09:21AM 33.9500 31.3160 121° Southeast 519 597 37,000  Level FlightAware
09:22AM 33.9030 31.4120 121° Southeast 520 598 37,000  Level FlightAware
09:23AM 33.8440 31.5300 121° Southeast 519 597 37,000  Level FlightAware
09:23AM 33.7930 31.6320 121° Southeast 518 596 37,000  Level FlightAware
09:24AM 33.7430 31.7320 121° Southeast 516 594 37,000  Level FlightAware
09:25AM 33.6950 31.8290 121° Southeast 514 592 37,000  Level FlightAware
09:25AM 33.6450 31.9290 121° Southeast 512 589 37,000  Level FlightAware
09:26AM 33.5950 32.0280 121° Southeast 511 588 37,000  Level FlightAware
09:27AM 33.5440 32.1290 121° Southeast 512 589 37,000  Level FlightAware
09:27AM 33.5020 32.2120 121° Southeast 512 589 37,000  Level FlightAware
09:28AM 33.4200 32.3750 121° Southeast 515 593 37,000  Level FlightAware
09:29AM 33.3530 32.5050 122° Southeast 514 592 37,000  Level FlightAware
09:30AM 33.3000 32.6100 121° Southeast 513 590 37,000  Level FlightAware
09:31AM 33.2500 32.7090 121° Southeast 511 588 37,000 -900 Level FlightAware
09:31AM 33.2050 32.7950 122° Southeast 497 572 35,900 -3,120 Descending FlightAware
09:32AM 33.1580 32.8880 121° Southeast 491 565 33,100 -4,740 Descending FlightAware
09:33AM 33.1040 32.9910 122° Southeast 528 608 29,200 -4,140 Descending FlightAware
09:33AM 33.0500 33.0960 122° Southeast 509 586 27,300 -1,680 Descending FlightAware
09:34AM 33.0020 33.1880 122° Southeast 475 547 27,000 -600 Descending FlightAware
09:35AM 32.9530 33.2830 122° Southeast 449 517 26,500 -600 Descending FlightAware
09:35AM 32.9160 33.3540 122° Southeast 436 502 26,200 -780 Descending FlightAware
09:36AM 32.8640 33.4550 121° Southeast 409 471 25,400 -1,020 Descending FlightAware
09:37AM 32.8260 33.5270 122° Southeast 390 449 24,700 -1,140 Descending FlightAware
09:37AM 32.7830 33.6090 122° Southeast 369 425 23,800 -1,140 Descending FlightAware
09:38AM 32.7400 33.6720 129° Southeast 372 428 23,100 -1,020 Descending FlightAware
09:38AM 32.7180 33.6860 152° Southeast 367 422 22,900 -1,440 Descending FlightAware
09:39AM 32.6520 33.6930 175° South 357 411 21,800 -1,740 Descending FlightAware
09:40AM 32.5880 33.7070 170° South 348 400 20,600 -1,800 Descending FlightAware
09:40AM 32.5720 33.7240 138° Southeast 344 396 20,200 -2,040 Descending FlightAware
09:40AM 32.5580 33.7520 121° Southeast 334 384 19,600 -2,520 Descending FlightAware
09:41AM 32.5460 33.8210 102° East 328 377 17,900 -2,520 Descending FlightAware
09:42AM 32.5350 33.8980 100° East 315 362 16,100 -2,400 Descending FlightAware
09:42AM 32.5240 33.9670 101° East 304 350 14,500 -2,340 Descending FlightAware
09:43AM 32.5130 34.0400 100° East 300 345 12,800 -1,920 Descending FlightAware
09:44AM 32.5030 34.1050 100° East 297 342 11,800 -1,560 Descending FlightAware
09:44AM 32.4930 34.1520 104° East 297 342 11,000 -1,500 Descending FlightAware
09:45AM 32.4580 34.1980 132° Southeast 296 341 10,100 -1,380 Descending FlightAware
09:45AM 32.4270 34.2340 136° Southeast 289 333 9,400 -1,320 Descending FlightAware
09:46AM 32.4050 34.2600 135° Southeast 288 331 8,900 -1,320 Descending FlightAware
09:46AM 32.3750 34.2950 135° Southeast 284 327 8,200 -1,500 Descending FlightAware
09:46AM 32.3660 34.3060 134° Southeast 284 327 7,900 -1,500 Descending FlightAware
09:47AM 32.3380 34.3390 135° Southeast 282 325 7,200 -840 Descending FlightAware
09:47AM 32.3130 34.3690 135° Southeast 282 325 7,100 -240 Descending FlightAware
09:50AM 32.1314 34.6200 125° Southeast  Level FlightAware Approximate
09:51AM 32.0605 34.7572 115° Southeast  Level FlightAware Approximate
09:52AM 32.0000 34.8667 125° Southeast  Level FlightAware Approximate
09:53AM 32.0095 34.8769 125° Southeast  Level Estimated
09:54AM 32.0095 34.8769 125° Southeast  Level Estimated
09:55AM 32.0095 34.8769 125° Southeast  Level Estimated
09:56AM 32.0095 34.8769 125° Southeast  Level Estimated
09:57AM 32.0095 34.8769 125° Southeast  Level Estimated
09:58AM 32.0095 34.8769 125° Southeast  Level Estimated
09:59AM 32.0095 34.8769 125° Southeast  Level Estimated
10:00AM 32.0095 34.8769 125° Southeast  Level Estimated
10:01AM 32.0095 34.8769 125° Southeast  Level Estimated
10:02AM 32.0095 34.8769 125° Southeast  Level Estimated
10:03AM 32.0095 34.8769 125° Southeast  Level Estimated
10:04AM 32.0095 34.8769 125° Southeast  Level Estimated
10:05AM 32.0095 34.8769 125° Southeast  Level Estimated